リヤド の空港の天気 - METARとTAF

キング・ハーリド国際空港(リヤド) ( OERK / RUH ) - サウジアラビア リヤド
飛行場実況気象(Metar)
観測時間06/25 11:00 AST (06/25 08:00 UTC)
風向・風速北 6m/s
視程10km以上
天気現象
なし
気温38℃
湿度9%
気圧1009hPa
METAROERK 250800Z 36012KT CAVOK 38/M01 Q1009 NOSIG
過去の天気等 Google飛行場航空写真 Wunderground天気予報

過去48時間のMETAR

飛行場予報(TAF)
発表時間: 6/23 20:00 AST (6/23 17:00 UTC)
予報対象時間: 23日21時 AST ~ 25日3時 AST
風向・風速北北東 3m/s 瞬間風速 8m/s
視程7,000m
なし
TAF OERK 231700Z 2318/2424 02006G16KT 7000 SKC